createdAt,value
2017-12-30T00:00:04.978Z,-3.75
2017-12-30T00:09:41.782Z,-3.46
2017-12-30T00:19:18.177Z,-3.36
2017-12-30T00:28:54.767Z,-3.17
2017-12-30T00:38:31.307Z,-3.07
2017-12-30T00:48:07.617Z,-3.07
2017-12-30T00:57:43.918Z,-2.87
2017-12-30T01:07:20.158Z,-2.97
2017-12-30T01:16:55.933Z,-2.78
2017-12-30T01:26:32.821Z,-2.77
2017-12-30T01:36:09.336Z,-2.38
2017-12-30T01:45:46.195Z,-2.48
2017-12-30T01:55:21.761Z,-2.68
2017-12-30T02:04:58.812Z,-2.87
2017-12-30T02:14:34.905Z,-2.87
2017-12-30T02:24:10.495Z,-3.07
2017-12-30T02:33:46.178Z,-3.17
2017-12-30T02:43:22.726Z,-3.36
2017-12-30T02:52:58.393Z,-3.66
2017-12-30T03:02:33.773Z,-3.66
2017-12-30T03:12:10.809Z,-3.75
2017-12-30T03:21:46.963Z,-3.95
2017-12-30T03:31:22.971Z,-4.15
2017-12-30T03:40:59.337Z,-4.05
2017-12-30T03:50:36.030Z,-3.75
2017-12-30T04:00:11.865Z,-3.75
2017-12-30T04:09:47.093Z,-3.95
2017-12-30T04:19:28.728Z,-4.05
2017-12-30T04:29:05.274Z,-3.95
2017-12-30T04:38:40.538Z,-4.15
2017-12-30T04:48:17.386Z,-4.24
2017-12-30T04:57:53.589Z,-4.24
2017-12-30T05:07:29.742Z,-4.34
2017-12-30T05:17:05.216Z,-4.44
2017-12-30T05:26:42.277Z,-4.44
2017-12-30T05:36:16.586Z,-4.63
2017-12-30T05:45:58.529Z,-4.63
2017-12-30T05:55:36.637Z,-4.83
2017-12-30T06:05:10.645Z,-4.83
2017-12-30T06:14:47.264Z,-5.03
2017-12-30T06:24:23.420Z,-5.12
2017-12-30T06:33:59.811Z,-5.22
2017-12-30T06:43:35.705Z,-5.22
2017-12-30T06:53:12.573Z,-5.22
2017-12-30T07:02:49.227Z,-5.12
2017-12-30T07:12:25.596Z,-4.93
2017-12-30T07:22:03.278Z,-4.83
2017-12-30T07:31:39.887Z,-4.73
2017-12-30T07:41:15.324Z,-4.63
2017-12-30T07:50:52.769Z,-4.24
2017-12-30T08:00:28.860Z,-3.95
2017-12-30T08:10:06.193Z,-3.26
2017-12-30T08:19:43.266Z,-3.07
2017-12-30T08:29:19.857Z,-2.78
2017-12-30T08:49:36.893Z,-1.80
2017-12-30T08:59:13.864Z,-1.50
2017-12-30T09:08:50.666Z,-1.11
2017-12-30T09:18:26.937Z,-0.82
2017-12-30T09:28:04.271Z,-0.13
2017-12-30T09:37:42.135Z,0.55
2017-12-30T09:47:18.425Z,0.55
2017-12-30T09:56:55.205Z,0.84
2017-12-30T10:06:31.578Z,1.33
2017-12-30T10:16:08.528Z,1.92
2017-12-30T10:25:44.874Z,2.21
2017-12-30T10:35:20.826Z,1.92
2017-12-30T10:44:57.228Z,2.21
2017-12-30T10:54:34.267Z,2.21
2017-12-30T11:04:10.157Z,2.31
2017-12-30T11:13:46.327Z,2.41
2017-12-30T11:23:23.148Z,3.58
2017-12-30T11:32:58.957Z,3.09
2017-12-30T11:42:34.650Z,2.70
2017-12-30T11:52:10.457Z,2.70
2017-12-30T12:01:46.703Z,3.00
2017-12-30T12:11:23.289Z,3.39
2017-12-30T12:20:59.522Z,3.29
2017-12-30T12:30:35.528Z,2.80
2017-12-30T12:40:10.747Z,2.90
2017-12-30T12:49:47.556Z,2.70
2017-12-30T12:59:24.353Z,2.80
2017-12-30T13:09:00.209Z,2.90
2017-12-30T13:18:36.167Z,2.80
2017-12-30T13:28:12.056Z,2.70
2017-12-30T13:37:45.997Z,2.70
2017-12-30T13:47:28.011Z,2.31
2017-12-30T13:57:03.356Z,1.92
2017-12-30T14:06:39.476Z,1.82
2017-12-30T14:16:15.980Z,1.63
2017-12-30T14:25:55.204Z,1.63
2017-12-30T14:35:25.339Z,1.53
2017-12-30T14:45:01.502Z,1.33
2017-12-30T14:54:41.225Z,1.23
2017-12-30T15:04:11.147Z,1.43
2017-12-30T15:13:45.202Z,1.33
2017-12-30T15:23:27.469Z,1.33
2017-12-30T15:33:03.645Z,1.24
2017-12-30T15:42:39.387Z,1.14
2017-12-30T15:52:14.883Z,1.04
2017-12-30T16:01:56.257Z,1.04
2017-12-30T16:11:25.895Z,0.84
2017-12-30T16:21:06.700Z,0.65
2017-12-30T16:30:40.290Z,0.55
2017-12-30T16:40:10.020Z,0.45
2017-12-30T16:49:47.058Z,0.35
2017-12-30T16:59:23.166Z,0.35
2017-12-30T17:09:02.057Z,0.16
2017-12-30T17:18:37.203Z,0.06
2017-12-30T17:28:06.911Z,-0.04
2017-12-30T17:37:42.329Z,-0.33
2017-12-30T17:47:22.865Z,-0.33
2017-12-30T17:56:51.509Z,-0.43
2017-12-30T18:06:27.688Z,-0.43
2017-12-30T18:16:03.996Z,-0.53
2017-12-30T18:25:39.408Z,-0.62
2017-12-30T18:35:15.185Z,-0.62
2017-12-30T18:44:52.397Z,-0.82
2017-12-30T18:54:28.629Z,-0.92
2017-12-30T19:04:04.818Z,-0.92
2017-12-30T19:13:41.495Z,-0.92
2017-12-30T19:23:17.369Z,-0.92
2017-12-30T19:32:53.075Z,-0.82
2017-12-30T19:42:30.798Z,0.06
2017-12-30T19:52:08.020Z,-0.62
2017-12-30T20:01:43.513Z,-0.72
2017-12-30T20:11:23.716Z,-0.72
2017-12-30T20:20:53.860Z,-1.02
2017-12-30T20:30:29.391Z,-1.11
2017-12-30T20:40:06.611Z,-1.21
2017-12-30T20:49:41.733Z,-1.31
2017-12-30T20:59:18.832Z,-1.50
2017-12-30T21:08:54.807Z,-1.60
2017-12-30T21:18:30.496Z,-1.70
2017-12-30T21:28:07.253Z,-1.80
2017-12-30T21:37:43.230Z,-1.90
2017-12-30T21:47:19.465Z,-1.99
2017-12-30T21:56:55.132Z,-1.99
2017-12-30T22:06:31.987Z,-2.09
2017-12-30T22:16:08.410Z,-1.99
2017-12-30T22:25:45.822Z,-2.09
2017-12-30T22:35:21.923Z,-2.19
2017-12-30T22:44:58.268Z,-2.19
2017-12-30T22:54:34.615Z,-2.19
2017-12-30T23:04:14.742Z,-2.29
2017-12-30T23:13:45.164Z,-2.09
2017-12-30T23:23:21.899Z,-1.90
2017-12-30T23:32:58.079Z,-1.80
2017-12-30T23:42:35.283Z,-1.90
2017-12-30T23:52:11.902Z,-1.80
